X  Fechar Dados meteorológicos de METAR da aviação     LYNI Nis Airport
Temperatura
31°C Temperatura
20°C Ponto de orvalho
52% Umidade



Vento
11 KM/H
7 MPH
3 M/S
6 NÓS



90°
L
Condições atuais

Limpo Limpo
Pressão 1006.77 (hPa) - 29.73 (inHg)
Visibilidade 6 (milha) - 9.7 (km)
Aeroporto
Código do aeroporto LYNI

Localização: Nis Airport
Distância: 63 (km)

Metar:
LYNI 221830Z 09006KT CAVOK 31/20 Q1007 NOSIG

Hora: 22-06-2024 20:30 CEST